createdAt,value
2018-12-25T00:01:19.485Z,70.69
2018-12-25T00:03:51.395Z,70.36
2018-12-25T00:06:19.631Z,70.54
2018-12-25T00:08:47.875Z,69.95
2018-12-25T00:11:16.177Z,70.05
2018-12-25T00:13:45.085Z,70.38
2018-12-25T00:16:13.268Z,70.21
2018-12-25T00:18:42.213Z,70.12
2018-12-25T00:21:11.045Z,71.08
2018-12-25T00:23:39.234Z,70.73
2018-12-25T00:26:07.475Z,70.25
2018-12-25T00:28:35.677Z,70.65
2018-12-25T00:31:03.877Z,71.09
2018-12-25T00:33:32.124Z,71.15
2018-12-25T00:36:00.491Z,70.94
2018-12-25T00:38:29.185Z,70.61
2018-12-25T00:40:58.008Z,70.57
2018-12-25T00:43:26.223Z,70.26
2018-12-25T00:45:55.119Z,69.71
2018-12-25T00:48:24.008Z,70.02
2018-12-25T00:50:52.220Z,70.37
2018-12-25T00:53:20.460Z,70.38
2018-12-25T00:55:49.379Z,70.75
2018-12-25T00:58:17.553Z,71.40
2018-12-25T01:00:46.313Z,70.83
2018-12-25T01:03:14.616Z,72.06
2018-12-25T01:05:42.933Z,72.50
2018-12-25T01:08:11.454Z,72.00
2018-12-25T01:10:39.752Z,71.96
2018-12-25T01:13:08.551Z,72.06
2018-12-25T01:15:37.411Z,73.29
2018-12-25T01:18:05.637Z,72.75
2018-12-25T01:20:34.383Z,72.19
2018-12-25T01:23:02.604Z,72.11
2018-12-25T01:25:30.835Z,72.06
2018-12-25T01:27:59.768Z,72.05
2018-12-25T01:30:28.394Z,71.56
2018-12-25T01:32:56.993Z,71.57
2018-12-25T01:35:25.180Z,71.94
2018-12-25T01:37:53.958Z,72.24
2018-12-25T01:40:22.632Z,71.72
2018-12-25T01:42:50.818Z,71.99
2018-12-25T01:45:19.056Z,71.43
2018-12-25T01:47:47.895Z,71.02
2018-12-25T01:50:16.088Z,71.69
2018-12-25T01:52:44.311Z,71.79
2018-12-25T01:55:13.131Z,72.00
2018-12-25T01:57:41.976Z,73.14
2018-12-25T02:00:10.191Z,72.95
2018-12-25T02:02:38.402Z,72.85
2018-12-25T02:05:06.605Z,72.96
2018-12-25T02:07:34.815Z,73.15
2018-12-25T02:10:03.007Z,73.47
2018-12-25T02:12:31.225Z,73.70
2018-12-25T02:14:59.442Z,73.60
2018-12-25T02:17:27.700Z,73.67
2018-12-25T02:19:56.586Z,73.08
2018-12-25T02:22:25.275Z,73.10
2018-12-25T02:24:53.509Z,73.18
2018-12-25T02:27:21.722Z,73.25
2018-12-25T02:29:49.914Z,73.22
2018-12-25T02:32:18.236Z,73.97
2018-12-25T02:34:47.149Z,73.71
2018-12-25T02:37:15.343Z,73.68
2018-12-25T02:39:43.561Z,73.65
2018-12-25T02:42:11.747Z,74.20
2018-12-25T02:44:39.975Z,73.27
2018-12-25T02:47:08.163Z,73.56
2018-12-25T02:49:36.379Z,73.03
2018-12-25T02:52:04.571Z,73.44
2018-12-25T02:54:32.778Z,73.94
2018-12-25T02:57:01.005Z,74.59
2018-12-25T02:59:29.917Z,74.70
2018-12-25T03:01:58.113Z,74.25
2018-12-25T03:04:26.486Z,74.19
2018-12-25T03:06:55.364Z,74.35
2018-12-25T03:09:23.576Z,74.05
2018-12-25T03:11:51.969Z,73.90
2018-12-25T03:14:20.805Z,74.23
2018-12-25T03:16:49.018Z,74.16
2018-12-25T03:19:17.209Z,73.98
2018-12-25T03:21:45.453Z,73.76
2018-12-25T03:24:13.642Z,74.33
2018-12-25T03:26:41.823Z,74.92
2018-12-25T03:29:10.278Z,75.06
2018-12-25T03:31:38.489Z,74.94
2018-12-25T03:34:06.691Z,74.71
2018-12-25T03:36:34.882Z,74.99
2018-12-25T03:39:03.909Z,74.14
2018-12-25T03:41:32.115Z,73.02
2018-12-25T03:44:00.356Z,73.04
2018-12-25T03:46:29.292Z,73.35
2018-12-25T03:48:57.612Z,74.49
2018-12-25T03:51:26.282Z,74.11
2018-12-25T03:53:54.499Z,73.95
2018-12-25T03:56:23.219Z,73.66
2018-12-25T03:58:51.413Z,74.07
2018-12-25T04:01:19.589Z,74.28
2018-12-25T04:03:47.809Z,74.02
2018-12-25T04:06:16.140Z,74.26
2018-12-25T04:08:45.013Z,74.10
2018-12-25T04:11:13.211Z,74.34
2018-12-25T04:13:41.435Z,74.12
2018-12-25T04:16:09.623Z,74.24
2018-12-25T04:18:37.829Z,74.33
2018-12-25T04:21:06.058Z,74.86
2018-12-25T04:23:34.273Z,75.04
2018-12-25T04:26:02.455Z,75.04
2018-12-25T04:28:30.685Z,75.13
2018-12-25T04:30:59.606Z,75.17
2018-12-25T04:33:27.793Z,74.99
2018-12-25T04:35:56.032Z,75.07
2018-12-25T04:38:24.211Z,75.08
2018-12-25T04:40:52.423Z,74.80
2018-12-25T04:43:20.642Z,74.93
2018-12-25T04:45:48.828Z,75.39
2018-12-25T04:48:17.510Z,74.87
2018-12-25T04:50:45.759Z,74.62
2018-12-25T04:53:14.623Z,74.09
2018-12-25T04:55:43.585Z,74.01
2018-12-25T04:58:12.284Z,74.13
2018-12-25T05:00:41.204Z,73.92
2018-12-25T05:03:09.680Z,73.98
2018-12-25T05:05:38.241Z,73.83
2018-12-25T05:08:07.811Z,74.54
2018-12-25T05:10:36.762Z,74.43
2018-12-25T05:13:05.901Z,74.58
2018-12-25T05:15:36.485Z,74.19
2018-12-25T05:18:05.277Z,74.35
2018-12-25T05:20:37.907Z,74.13
2018-12-25T05:23:04.057Z,74.19
2018-12-25T05:25:32.277Z,73.74
2018-12-25T05:28:00.489Z,73.78
2018-12-25T05:30:29.169Z,73.32
2018-12-25T05:32:57.397Z,73.67
2018-12-25T05:35:25.659Z,73.67
2018-12-25T05:37:53.888Z,73.36
2018-12-25T05:40:22.781Z,74.23
2018-12-25T05:42:51.015Z,73.97
2018-12-25T05:45:19.225Z,73.97
2018-12-25T05:47:47.913Z,73.62
2018-12-25T05:50:16.141Z,73.30
2018-12-25T05:52:44.327Z,72.98
2018-12-25T05:55:12.535Z,72.85
2018-12-25T05:57:40.739Z,73.13
2018-12-25T06:00:08.966Z,72.95
2018-12-25T06:02:37.159Z,73.17
2018-12-25T06:05:05.629Z,72.91
2018-12-25T06:07:34.383Z,72.52
2018-12-25T06:10:02.588Z,73.16
2018-12-25T06:12:30.775Z,74.14
2018-12-25T06:14:59.009Z,74.38
2018-12-25T06:17:27.207Z,73.81
2018-12-25T06:19:55.625Z,74.58
2018-12-25T06:22:23.864Z,73.57
2018-12-25T06:24:52.110Z,73.04
2018-12-25T06:27:21.064Z,73.49
2018-12-25T06:29:49.305Z,73.16
2018-12-25T06:32:17.550Z,73.81
2018-12-25T06:34:46.384Z,73.23
2018-12-25T06:37:14.581Z,73.21
2018-12-25T06:39:42.839Z,73.92
2018-12-25T06:42:11.029Z,73.56
2018-12-25T06:44:39.557Z,73.88
2018-12-25T06:47:08.447Z,74.08
2018-12-25T06:49:36.984Z,72.98
2018-12-25T06:52:05.177Z,72.98
2018-12-25T06:54:33.401Z,73.37
2018-12-25T06:57:01.602Z,74.36
2018-12-25T06:59:29.781Z,74.36
2018-12-25T07:01:57.991Z,74.30
2018-12-25T07:04:26.211Z,74.09
2018-12-25T07:06:54.441Z,73.24
2018-12-25T07:09:22.645Z,72.67
2018-12-25T07:11:51.578Z,72.67
2018-12-25T07:14:19.833Z,72.93
2018-12-25T07:16:48.017Z,73.38
2018-12-25T07:19:16.241Z,72.98
2018-12-25T07:21:44.441Z,74.32
2018-12-25T07:24:12.738Z,74.13
2018-12-25T07:26:41.642Z,73.44
2018-12-25T07:29:09.822Z,73.62
2018-12-25T07:31:38.056Z,73.33
2018-12-25T07:34:06.250Z,73.49
2018-12-25T07:36:34.490Z,73.39
2018-12-25T07:39:02.713Z,73.36
2018-12-25T07:41:30.895Z,72.79
2018-12-25T07:43:59.114Z,73.00
2018-12-25T07:46:27.535Z,73.00
2018-12-25T07:48:56.218Z,73.06
2018-12-25T07:51:24.408Z,73.06
2018-12-25T07:53:52.622Z,73.05
2018-12-25T07:56:20.820Z,73.43
2018-12-25T07:58:49.044Z,72.96
2018-12-25T08:01:17.273Z,73.38
2018-12-25T08:03:45.476Z,73.73
2018-12-25T08:06:13.698Z,73.07
2018-12-25T08:08:41.910Z,72.91
2018-12-25T08:11:10.108Z,73.30
2018-12-25T08:13:39.104Z,73.34
2018-12-25T08:16:07.286Z,72.89
2018-12-25T08:18:35.560Z,72.59
2018-12-25T08:21:04.419Z,72.38
2018-12-25T08:23:32.653Z,72.38
2018-12-25T08:26:00.870Z,72.80
2018-12-25T08:28:29.116Z,72.63
2018-12-25T08:30:57.276Z,72.63
2018-12-25T08:33:25.498Z,72.44
2018-12-25T08:35:53.694Z,72.66
2018-12-25T08:38:21.907Z,73.13
2018-12-25T08:40:50.131Z,72.46
2018-12-25T08:43:18.396Z,72.24
2018-12-25T08:45:47.294Z,71.97
2018-12-25T08:48:15.499Z,71.42
2018-12-25T08:50:43.714Z,70.70
2018-12-25T08:53:11.936Z,70.68
2018-12-25T08:55:40.196Z,70.59
2018-12-25T08:58:09.100Z,70.59
2018-12-25T09:00:37.325Z,69.68
2018-12-25T09:03:05.547Z,69.11
2018-12-25T09:05:33.792Z,68.80
2018-12-25T09:08:02.697Z,68.54
2018-12-25T09:10:30.947Z,68.46
2018-12-25T09:13:00.002Z,68.42
2018-12-25T09:15:28.741Z,68.45
2018-12-25T09:17:57.644Z,67.86
2018-12-25T09:20:25.939Z,67.41
2018-12-25T09:22:54.435Z,67.35
2018-12-25T09:25:23.006Z,68.13
2018-12-25T09:27:51.981Z,68.37
2018-12-25T09:30:20.476Z,66.85
2018-12-25T09:32:48.944Z,66.62
2018-12-25T09:35:17.354Z,65.35
2018-12-25T09:37:45.847Z,66.36
2018-12-25T09:40:14.388Z,66.57
2018-12-25T09:42:42.831Z,66.42
2018-12-25T09:45:11.356Z,66.41
2018-12-25T09:47:39.832Z,66.64
2018-12-25T09:50:08.292Z,67.37
2018-12-25T09:52:36.882Z,66.73
2018-12-25T09:55:05.362Z,65.57
2018-12-25T09:57:33.720Z,64.54
2018-12-25T10:00:02.209Z,64.04
2018-12-25T10:02:30.615Z,64.21
2018-12-25T10:04:59.085Z,64.67
2018-12-25T10:07:27.654Z,64.17
2018-12-25T10:09:56.146Z,63.85
2018-12-25T10:12:27.813Z,63.99
2018-12-25T10:14:56.298Z,62.74
2018-12-25T10:17:24.851Z,62.53
2018-12-25T10:19:53.232Z,57.21
2018-12-25T10:22:21.850Z,56.83
2018-12-25T10:24:51.322Z,52.99
2018-12-25T10:27:20.174Z,54.35
2018-12-25T10:29:48.696Z,58.25
2018-12-25T10:32:17.088Z,60.94
2018-12-25T10:34:46.491Z,61.56
2018-12-25T10:37:14.871Z,60.77
2018-12-25T10:39:43.311Z,61.81
2018-12-25T10:42:11.872Z,62.92
2018-12-25T10:44:40.318Z,63.68
2018-12-25T10:47:08.670Z,63.30
2018-12-25T10:49:37.156Z,63.61
2018-12-25T10:52:11.566Z,63.61
2018-12-25T10:54:35.656Z,63.54
2018-12-25T10:57:04.136Z,64.28
2018-12-25T10:59:32.592Z,64.43
2018-12-25T11:02:01.100Z,65.15
2018-12-25T11:04:29.551Z,64.56
2018-12-25T11:06:58.056Z,64.59
2018-12-25T11:09:26.437Z,64.30
2018-12-25T11:11:54.920Z,63.89
2018-12-25T11:14:23.405Z,63.67
2018-12-25T11:16:51.945Z,64.12
2018-12-25T11:19:20.430Z,64.05
2018-12-25T11:21:48.950Z,63.73
2018-12-25T11:24:17.502Z,62.62
2018-12-25T11:26:46.086Z,61.73
2018-12-25T11:29:14.322Z,61.04
2018-12-25T11:31:44.066Z,60.53
2018-12-25T11:34:12.236Z,59.36
2018-12-25T11:36:40.446Z,59.82
2018-12-25T11:39:08.642Z,59.18
2018-12-25T11:41:37.046Z,60.10
2018-12-25T11:44:05.488Z,60.26
2018-12-25T11:46:34.064Z,59.69
2018-12-25T11:49:02.576Z,58.90
2018-12-25T11:51:31.037Z,58.69
2018-12-25T11:53:59.590Z,58.87
2018-12-25T11:56:28.252Z,60.21
2018-12-25T11:58:56.538Z,61.35
2018-12-25T12:01:24.884Z,60.76
2018-12-25T12:03:54.718Z,60.67
2018-12-25T12:06:23.206Z,59.71
2018-12-25T12:08:52.562Z,59.31
2018-12-25T12:11:20.996Z,59.31
2018-12-25T12:13:49.593Z,59.17
2018-12-25T12:16:18.253Z,59.60
2018-12-25T12:18:46.804Z,59.87
2018-12-25T12:21:15.207Z,60.93
2018-12-25T12:23:43.845Z,60.96
2018-12-25T12:26:12.299Z,61.40
2018-12-25T12:28:40.778Z,62.04
2018-12-25T12:31:09.453Z,62.31
2018-12-25T12:33:37.850Z,62.16
2018-12-25T12:36:06.307Z,61.20
2018-12-25T12:38:34.881Z,60.96
2018-12-25T12:41:03.382Z,60.92
2018-12-25T12:43:31.925Z,62.27
2018-12-25T12:46:00.380Z,61.49
2018-12-25T12:48:28.937Z,62.00
2018-12-25T12:50:57.393Z,61.84
2018-12-25T12:53:26.003Z,61.44
2018-12-25T12:55:54.518Z,60.71
2018-12-25T12:58:23.071Z,60.56
2018-12-25T13:00:51.511Z,60.34
2018-12-25T13:03:20.036Z,60.02
2018-12-25T13:05:48.751Z,60.38
2018-12-25T13:08:17.294Z,60.59
2018-12-25T13:10:45.914Z,60.98
2018-12-25T13:13:14.226Z,61.45
2018-12-25T13:15:42.794Z,60.88
2018-12-25T13:18:11.287Z,60.24
2018-12-25T13:20:39.816Z,59.59
2018-12-25T13:23:08.253Z,59.83
2018-12-25T13:25:36.900Z,60.41
2018-12-25T13:28:05.340Z,60.26
2018-12-25T13:30:35.500Z,60.38
2018-12-25T13:33:03.984Z,60.93
2018-12-25T13:35:34.274Z,61.33
2018-12-25T13:38:02.722Z,60.78
2018-12-25T13:40:31.391Z,60.96
2018-12-25T13:43:04.205Z,61.46
2018-12-25T13:45:36.742Z,61.21
2018-12-25T13:48:05.072Z,61.78
2018-12-25T13:50:33.663Z,62.79
2018-12-25T13:53:03.081Z,62.41
2018-12-25T13:55:32.202Z,62.45
2018-12-25T13:58:04.336Z,62.63
2018-12-25T14:00:35.711Z,62.87
2018-12-25T14:03:04.168Z,63.41
2018-12-25T14:05:36.521Z,63.46
2018-12-25T14:08:07.070Z,63.53
2018-12-25T14:10:35.428Z,62.99
2018-12-25T14:13:03.897Z,63.14
2018-12-25T14:15:32.407Z,63.04
2018-12-25T14:18:00.812Z,63.04
2018-12-25T14:20:29.253Z,63.15
2018-12-25T14:22:57.626Z,63.70
2018-12-25T14:25:26.118Z,63.25
2018-12-25T14:27:54.554Z,63.94
2018-12-25T14:30:23.020Z,64.05
2018-12-25T14:32:51.542Z,64.02
2018-12-25T14:35:19.930Z,64.18
2018-12-25T14:37:53.622Z,64.52
2018-12-25T14:40:21.814Z,64.81
2018-12-25T14:42:50.157Z,64.79
2018-12-25T14:45:21.538Z,64.86
2018-12-25T14:47:54.760Z,64.78
2018-12-25T14:50:24.770Z,64.97
2018-12-25T14:52:53.220Z,65.04
2018-12-25T14:55:22.016Z,65.33
2018-12-25T14:57:53.471Z,65.10
2018-12-25T15:00:29.303Z,65.29
2018-12-25T15:03:02.263Z,65.41
2018-12-25T15:05:27.985Z,65.72
2018-12-25T15:07:56.433Z,65.82
2018-12-25T15:10:26.740Z,66.07
2018-12-25T15:12:54.958Z,66.28
2018-12-25T15:15:26.661Z,66.74
2018-12-25T15:17:55.128Z,68.71
2018-12-25T15:20:23.636Z,67.87
2018-12-25T15:22:51.996Z,67.43
2018-12-25T15:25:21.277Z,67.89
2018-12-25T15:27:49.774Z,67.84
2018-12-25T15:30:18.589Z,67.45
2018-12-25T15:32:48.606Z,66.95
2018-12-25T15:35:17.174Z,68.71
2018-12-25T15:37:45.858Z,67.49
2018-12-25T15:40:17.434Z,66.93
2018-12-25T15:42:45.905Z,67.28
2018-12-25T15:45:14.488Z,66.89
2018-12-25T15:47:43.047Z,67.59
2018-12-25T15:50:11.536Z,67.20
2018-12-25T15:52:40.020Z,67.70
2018-12-25T15:55:08.390Z,67.42
2018-12-25T15:57:36.988Z,67.12
2018-12-25T16:00:08.733Z,66.77
2018-12-25T16:02:37.503Z,67.56
2018-12-25T16:05:06.291Z,66.55
2018-12-25T16:07:34.724Z,66.73
2018-12-25T16:10:03.577Z,66.91
2018-12-25T16:12:32.471Z,66.62
2018-12-25T16:15:00.960Z,68.66
2018-12-25T16:17:29.461Z,68.52
2018-12-25T16:19:57.911Z,68.39
2018-12-25T16:22:26.272Z,68.90
2018-12-25T16:24:54.780Z,68.83
2018-12-25T16:27:23.226Z,69.63
2018-12-25T16:29:51.738Z,68.64
2018-12-25T16:32:21.756Z,68.22
2018-12-25T16:34:50.095Z,67.64
2018-12-25T16:37:18.619Z,68.03
2018-12-25T16:39:46.961Z,68.51
2018-12-25T16:42:15.696Z,70.10
2018-12-25T16:44:43.926Z,70.29
2018-12-25T16:47:12.302Z,69.78
2018-12-25T16:49:40.804Z,68.85
2018-12-25T16:52:09.180Z,68.68
2018-12-25T16:54:37.542Z,68.80
2018-12-25T16:57:06.022Z,70.29
2018-12-25T16:59:34.525Z,70.66
2018-12-25T17:02:03.028Z,69.94
2018-12-25T17:04:31.617Z,69.83
2018-12-25T17:07:00.045Z,70.23
2018-12-25T17:09:28.452Z,70.05
2018-12-25T17:11:57.016Z,69.98
2018-12-25T17:14:25.374Z,70.58
2018-12-25T17:16:56.251Z,70.67
2018-12-25T17:19:24.713Z,71.19
2018-12-25T17:21:52.996Z,69.69
2018-12-25T17:24:21.588Z,70.00
2018-12-25T17:26:49.855Z,70.79
2018-12-25T17:29:18.674Z,70.98
2018-12-25T17:31:47.389Z,70.06
2018-12-25T17:34:16.284Z,69.75
2018-12-25T17:36:45.003Z,71.85
2018-12-25T17:39:13.772Z,72.53
2018-12-25T17:41:42.702Z,73.15
2018-12-25T17:44:11.570Z,73.24
2018-12-25T17:46:39.779Z,73.01
2018-12-25T17:49:07.981Z,71.78
2018-12-25T17:51:36.809Z,72.08
2018-12-25T17:54:10.650Z,74.59
2018-12-25T17:56:37.987Z,73.93
2018-12-25T17:59:05.845Z,74.04
2018-12-25T18:01:34.729Z,73.63
2018-12-25T18:04:03.004Z,73.98
2018-12-25T18:06:31.245Z,75.00
2018-12-25T18:08:59.940Z,74.41
2018-12-25T18:11:28.736Z,74.32
2018-12-25T18:13:57.613Z,73.12
2018-12-25T18:16:25.778Z,72.88
2018-12-25T18:18:54.517Z,72.27
2018-12-25T18:21:22.726Z,72.68
2018-12-25T18:23:51.525Z,73.85
2018-12-25T18:26:19.756Z,73.70
2018-12-25T18:28:47.976Z,74.74
2018-12-25T18:31:16.704Z,74.32
2018-12-25T18:33:45.618Z,73.82
2018-12-25T18:36:14.468Z,73.05
2018-12-25T18:38:43.386Z,72.14
2018-12-25T18:41:11.619Z,73.63
2018-12-25T18:43:40.456Z,73.54
2018-12-25T18:46:08.828Z,72.75
2018-12-25T18:48:37.716Z,73.43
2018-12-25T18:51:06.603Z,73.23
2018-12-25T18:53:34.910Z,72.41
2018-12-25T18:56:03.426Z,72.76
2018-12-25T18:58:32.009Z,72.43
2018-12-25T19:01:00.530Z,72.26
2018-12-25T19:03:29.278Z,73.47
2018-12-25T19:05:57.845Z,73.48
2018-12-25T19:08:26.169Z,73.02
2018-12-25T19:10:54.541Z,74.41
2018-12-25T19:13:23.039Z,74.37
2018-12-25T19:15:51.321Z,74.72
2018-12-25T19:18:20.316Z,74.75
2018-12-25T19:20:48.536Z,74.35
2018-12-25T19:23:16.798Z,74.34
2018-12-25T19:25:45.075Z,74.63
2018-12-25T19:28:13.324Z,74.45
2018-12-25T19:30:41.646Z,73.94
2018-12-25T19:33:10.174Z,75.67
2018-12-25T19:35:38.913Z,75.50
2018-12-25T19:38:07.445Z,75.75
2018-12-25T19:40:35.898Z,75.05
2018-12-25T19:43:04.851Z,74.41
2018-12-25T19:45:33.315Z,74.37
2018-12-25T19:48:01.566Z,74.62
2018-12-25T19:50:30.088Z,74.78
2018-12-25T19:52:58.537Z,74.67
2018-12-25T19:55:26.901Z,75.13
2018-12-25T19:57:55.123Z,76.05
2018-12-25T20:00:23.506Z,75.54
2018-12-25T20:02:54.952Z,76.33
2018-12-25T20:05:26.978Z,75.58
2018-12-25T20:08:15.132Z,75.39
2018-12-25T20:11:05.979Z,75.54
2018-12-25T20:13:49.612Z,75.74
2018-12-25T20:16:50.241Z,76.50
2018-12-25T20:19:22.043Z,75.72
2018-12-25T20:22:02.782Z,75.05
2018-12-25T20:24:34.580Z,73.81
2018-12-25T20:27:12.340Z,74.18
2018-12-25T20:29:55.330Z,75.14
2018-12-25T20:32:35.926Z,75.73
2018-12-25T20:35:23.925Z,76.76
2018-12-25T20:38:04.469Z,76.03
2018-12-25T20:41:09.478Z,75.46
2018-12-25T20:44:00.949Z,76.49
2018-12-25T20:47:04.128Z,76.20
2018-12-25T20:49:44.730Z,76.39
2018-12-25T20:52:36.105Z,76.21
2018-12-25T20:55:22.967Z,76.42
2018-12-25T20:58:10.280Z,76.59
2018-12-25T21:00:58.384Z,77.07
2018-12-25T21:03:57.409Z,76.62
2018-12-25T21:06:35.057Z,76.96
2018-12-25T21:09:23.558Z,77.35
2018-12-25T21:12:13.020Z,76.78
2018-12-25T21:15:00.964Z,77.13
2018-12-25T21:17:52.870Z,77.11
2018-12-25T21:20:50.429Z,76.45
2018-12-25T21:23:55.420Z,76.95
2018-12-25T21:27:00.409Z,76.89
2018-12-25T21:29:29.358Z,77.73
2018-12-25T21:31:58.547Z,77.14
2018-12-25T21:34:27.005Z,78.10
2018-12-25T21:36:55.515Z,77.69
2018-12-25T21:39:23.786Z,77.72
2018-12-25T21:41:52.264Z,77.72
2018-12-25T21:44:20.724Z,77.57
2018-12-25T21:46:49.175Z,78.17
2018-12-25T21:49:20.879Z,77.41
2018-12-25T21:51:49.208Z,77.58
2018-12-25T21:54:17.694Z,77.46
2018-12-25T21:56:46.209Z,77.59
2018-12-25T21:59:15.090Z,77.53
2018-12-25T22:01:43.441Z,77.33
2018-12-25T22:04:11.317Z,77.23
2018-12-25T22:06:39.711Z,89.71
2018-12-25T22:09:07.784Z,68.56
2018-12-25T22:11:35.451Z,63.59
2018-12-25T22:14:03.129Z,62.57
2018-12-25T22:16:30.779Z,59.49
2018-12-25T22:18:58.858Z,59.52
2018-12-25T22:21:26.525Z,58.68
2018-12-25T22:23:54.162Z,57.57
2018-12-25T22:26:21.826Z,56.40
2018-12-25T22:28:50.135Z,55.41
2018-12-25T22:31:18.036Z,54.92
2018-12-25T22:33:45.752Z,54.99
2018-12-25T22:36:13.303Z,54.76
2018-12-25T22:38:40.865Z,54.60
2018-12-25T22:41:11.388Z,54.39
2018-12-25T22:43:38.988Z,54.18
2018-12-25T22:46:06.921Z,53.79
2018-12-25T22:48:34.471Z,53.55
2018-12-25T22:51:02.079Z,53.29
2018-12-25T22:53:29.719Z,53.03
2018-12-25T22:55:58.895Z,52.78
2018-12-25T22:58:26.578Z,52.52
2018-12-25T23:00:54.352Z,52.38
2018-12-25T23:03:22.002Z,52.18
2018-12-25T23:05:49.782Z,52.00
2018-12-25T23:08:17.534Z,51.74
2018-12-25T23:10:45.046Z,51.54
2018-12-25T23:13:12.637Z,51.39
2018-12-25T23:15:40.317Z,51.22
2018-12-25T23:18:07.960Z,51.10
2018-12-25T23:20:35.629Z,50.93
2018-12-25T23:23:03.273Z,50.76
2018-12-25T23:25:30.960Z,50.68
2018-12-25T23:27:58.501Z,50.51
2018-12-25T23:30:26.154Z,50.37
2018-12-25T23:32:53.834Z,50.21
2018-12-25T23:35:21.421Z,50.10
2018-12-25T23:37:49.071Z,50.02
2018-12-25T23:40:16.778Z,49.90
2018-12-25T23:42:44.350Z,49.79
2018-12-25T23:45:12.044Z,49.80
2018-12-25T23:47:39.695Z,49.62
2018-12-25T23:50:07.334Z,49.56
2018-12-25T23:52:35.114Z,49.46
2018-12-25T23:55:02.726Z,49.33
2018-12-25T23:57:30.313Z,49.30
2018-12-25T23:59:58.062Z,49.21
